Kezdőlap
METAR-TAF:

METAR-TAF

Repülőterek :

Fokváros, Dél-afrikai Köztársaság

földrajzi szélesség: 33-59S, földrajzi hosszúság: 018-36E, magasság: 42 m

Jelenlegi meteorológiai megfigyelések

A jelentés 44 perccel ezelõtt készült, 14:00 UTC
Déli szél 20 kt
Hőmérséklet 17°C
Páratartalom 63%
Légköri nyomás 1019 hPa
Látótávolság 10 km, vagy több
felhőtlen 1500 m magasságban, és nincs gomolyfelhõ

METAR: FACT 231400Z 19020KT CAVOK 17/10 Q1019 NOSIG

Idő: 16:44 (14:44 UTC)

Előrejelzés

A jelentés 4 órával és 44 perccel ezelõtt készült, 10:00 UTC
Az előrejelzés 23-én 12 óra UTC és 24-én 18 óra UTC között érvényes
Déli szél 20 kt
Látótávolság 10 km, vagy több
felhőtlen 1500 m magasságban, és nincs gomolyfelhõ
23-én 16 óra UTC és 23-én 18 óra UTC között fokozatosan kialakuló
Dél-délnyugati szél 8 kt

TAF: FACT 231000Z 2312/2418 17020KT CAVOK BECMG 2316/2318 20008KT TX24/2412Z TN12/2405Z

Meteorológiai megfigyelések és előrejelzések több, mint 4000 repülőtéren (METAR és TAF jelentéseket).

A térképen piros és sárga pontok jelzik az elérhető meteorológiai állomásokat.

Mozgassa az egeret a pont fölött, hogy megjelenjen az állomás neve.

Azután kattintson az időjárási megfigyelések és előrejelzések megtekintéséhez.

A térkép megváltoztatása: kattintson a fekete keresztel jelölt zöld gombra ráközelítéshez, a vonallal jelölt zöld gombra távolításhoz, vagy a zöld nyilakra a szomszédos térképek eléréséhez.


METAR-TAF: